createdAt,value
2019-04-23T00:01:23.855Z,96.90
2019-04-23T00:03:48.399Z,96.90
2019-04-23T00:06:21.778Z,96.90
2019-04-23T00:08:54.504Z,97.00
2019-04-23T00:13:52.385Z,97.40
2019-04-23T00:21:33.372Z,97.90
2019-04-23T00:29:05.412Z,98.50
2019-04-23T00:31:43.190Z,98.60
2019-04-23T00:34:04.204Z,98.70
2019-04-23T00:36:32.590Z,98.70
2019-04-23T00:38:55.784Z,98.40
2019-04-23T00:41:33.393Z,97.90
2019-04-23T00:46:28.896Z,97.70
2019-04-23T00:51:34.719Z,97.60
2019-04-23T00:53:57.338Z,97.60
2019-04-23T00:58:58.038Z,97.60
2019-04-23T01:01:28.436Z,97.50
2019-04-23T01:04:02.331Z,97.50
2019-04-23T01:06:27.265Z,97.40
2019-04-23T01:08:55.145Z,97.30
2019-04-23T01:11:27.666Z,97.20
2019-04-23T01:14:08.134Z,97.10
2019-04-23T01:16:22.771Z,97.00
2019-04-23T01:18:58.294Z,97.00
2019-04-23T01:21:22.278Z,97.00
2019-04-23T01:24:15.859Z,97.10
2019-04-23T01:30:08.381Z,97.10
2019-04-23T01:32:31.750Z,97.20
2019-04-23T01:35:12.766Z,97.00
2019-04-23T01:37:30.544Z,97.10
2019-04-23T01:40:09.715Z,97.20
2019-04-23T01:42:39.600Z,97.40
2019-04-23T01:45:07.015Z,97.60
2019-04-23T01:47:33.682Z,97.60
2019-04-23T01:50:08.227Z,97.80
2019-04-23T01:52:39.871Z,97.80
2019-04-23T01:55:02.980Z,97.80
2019-04-23T01:57:30.841Z,97.80
2019-04-23T02:00:03.171Z,97.70
2019-04-23T02:02:36.129Z,97.60
2019-04-23T02:05:04.156Z,97.80
2019-04-23T02:07:41.930Z,97.80
2019-04-23T02:12:34.454Z,97.80
2019-04-23T02:15:02.930Z,97.50
2019-04-23T02:17:28.804Z,97.30
2019-04-23T02:20:01.377Z,97.20
2019-04-23T02:25:40.798Z,96.90
2019-04-23T02:27:59.867Z,96.70
2019-04-23T02:33:13.135Z,96.30
2019-04-23T02:35:47.134Z,96.40
2019-04-23T02:40:37.782Z,96.00
2019-04-23T02:43:06.843Z,95.90
2019-04-23T02:45:32.094Z,95.60
2019-04-23T02:48:14.575Z,95.40
2019-04-23T02:50:34.727Z,95.40
2019-04-23T02:53:02.565Z,95.30
2019-04-23T02:55:41.835Z,95.20
2019-04-23T03:00:30.920Z,95.20
2019-04-23T03:05:32.082Z,95.30
2019-04-23T03:07:54.103Z,95.40
2019-04-23T03:10:24.654Z,95.50
2019-04-23T03:12:58.759Z,95.40
2019-04-23T03:21:44.577Z,95.00
2019-04-23T03:24:31.143Z,94.70
2019-04-23T03:27:09.810Z,94.70
2019-04-23T03:29:33.020Z,94.60
2019-04-23T03:35:10.342Z,94.50
2019-04-23T03:39:36.960Z,94.10
2019-04-23T03:41:54.440Z,94.00
2019-04-23T03:44:29.966Z,94.10
2019-04-23T03:46:56.374Z,94.10
2019-04-23T03:49:19.591Z,94.20
2019-04-23T03:52:01.310Z,94.10
2019-04-23T03:54:42.161Z,94.00
2019-04-23T03:57:13.928Z,93.90
2019-04-23T03:59:29.032Z,93.90
2019-04-23T04:06:59.509Z,93.60
2019-04-23T04:09:26.117Z,93.50
2019-04-23T04:11:33.434Z,93.50
2019-04-23T04:16:51.771Z,93.40
2019-04-23T04:19:26.359Z,93.60
2019-04-23T04:21:49.357Z,93.60
2019-04-23T04:26:50.952Z,93.80
2019-04-23T04:29:21.558Z,94.00
2019-04-23T04:34:43.848Z,94.20
2019-04-23T04:36:58.583Z,94.30
2019-04-23T04:39:08.052Z,94.30
2019-04-23T04:41:52.526Z,94.40
2019-04-23T04:44:27.258Z,94.50
2019-04-23T04:46:47.654Z,94.60
2019-04-23T04:49:15.138Z,94.60
2019-04-23T04:51:49.717Z,94.70
2019-04-23T04:54:14.012Z,94.70
2019-04-23T04:59:22.714Z,94.80
2019-04-23T05:01:37.004Z,95.10
2019-04-23T05:04:16.525Z,95.20
2019-04-23T05:06:43.806Z,95.30
2019-04-23T05:11:45.820Z,96.40
2019-04-23T05:14:26.913Z,97.10
2019-04-23T05:16:33.151Z,98.00
2019-04-23T05:19:22.215Z,98.50
2019-04-23T05:21:51.769Z,98.60
2019-04-23T05:24:15.022Z,99.60
2019-04-23T05:26:48.104Z,99.90
2019-04-23T05:29:14.806Z,99.90
2019-04-23T05:31:46.990Z,99.90
2019-04-23T05:34:10.655Z,99.90
2019-04-23T05:41:38.522Z,99.90
2019-04-23T05:44:10.317Z,99.90
2019-04-23T05:46:38.708Z,99.90
2019-04-23T05:49:07.636Z,99.90
2019-04-23T05:51:48.640Z,99.90
2019-04-23T05:54:22.718Z,99.90
2019-04-23T05:56:32.094Z,99.90
2019-04-23T05:59:06.623Z,99.90
2019-04-23T06:04:10.525Z,99.90
2019-04-23T06:06:45.176Z,99.90
2019-04-23T06:09:09.158Z,99.90
2019-04-23T06:11:48.513Z,99.90
2019-04-23T06:14:11.386Z,99.90
2019-04-23T06:16:36.146Z,99.90
2019-04-23T06:19:07.062Z,99.90
2019-04-23T06:21:55.745Z,99.90
2019-04-23T06:24:09.858Z,99.90
2019-04-23T06:26:39.561Z,99.90
2019-04-23T06:29:05.583Z,99.90
2019-04-23T06:31:41.073Z,99.90
2019-04-23T06:34:07.453Z,99.90
2019-04-23T06:36:32.416Z,99.90
2019-04-23T06:39:03.809Z,99.90
2019-04-23T06:41:52.765Z,99.90
2019-04-23T06:44:32.612Z,99.90
2019-04-23T06:49:26.981Z,99.90
2019-04-23T06:52:00.912Z,99.90
2019-04-23T06:54:19.182Z,99.90
2019-04-23T06:57:03.880Z,99.90
2019-04-23T06:59:22.334Z,99.90
2019-04-23T07:01:53.099Z,99.90
2019-04-23T07:04:18.161Z,99.90
2019-04-23T07:07:15.881Z,99.90
2019-04-23T07:09:27.717Z,99.90
2019-04-23T07:12:09.101Z,99.90
2019-04-23T07:14:40.465Z,99.90
2019-04-23T07:16:58.518Z,99.90
2019-04-23T07:19:31.969Z,99.90
2019-04-23T07:22:00.731Z,99.90
2019-04-23T07:24:24.519Z,99.90
2019-04-23T07:26:45.400Z,99.90
2019-04-23T07:29:26.361Z,99.90
2019-04-23T07:34:23.314Z,99.90
2019-04-23T07:36:56.183Z,99.90
2019-04-23T07:40:09.651Z,99.90
2019-04-23T07:42:29.505Z,99.90
2019-04-23T07:45:20.939Z,99.90
2019-04-23T07:53:18.783Z,99.90
2019-04-23T07:55:43.385Z,99.90
2019-04-23T07:58:14.049Z,99.90
2019-04-23T08:03:10.923Z,99.90
2019-04-23T08:05:35.727Z,99.90
2019-04-23T08:10:35.807Z,99.90
2019-04-23T08:13:12.024Z,99.90
2019-04-23T08:15:36.865Z,99.90
2019-04-23T08:18:06.887Z,99.90
2019-04-23T08:20:40.544Z,99.90
2019-04-23T08:23:16.648Z,99.90
2019-04-23T08:26:11.405Z,99.90
2019-04-23T08:28:43.165Z,99.90
2019-04-23T08:30:59.001Z,99.90
2019-04-23T08:33:33.480Z,99.90
2019-04-23T08:36:09.486Z,99.90
2019-04-23T08:38:41.286Z,99.90
2019-04-23T08:41:10.251Z,99.90
2019-04-23T08:43:42.700Z,99.90
2019-04-23T08:46:26.742Z,99.90
2019-04-23T08:48:51.889Z,99.90
2019-04-23T08:51:32.300Z,99.90
2019-04-23T08:53:50.008Z,99.90
2019-04-23T08:56:27.164Z,99.90
2019-04-23T08:58:41.464Z,99.90
2019-04-23T09:01:17.129Z,99.90
2019-04-23T09:03:45.817Z,99.90
2019-04-23T09:06:20.400Z,99.60
2019-04-23T09:09:06.935Z,99.90
2019-04-23T09:16:15.710Z,98.00
2019-04-23T09:18:45.958Z,98.40
2019-04-23T09:23:54.433Z,98.90
2019-04-23T09:26:29.127Z,96.80
2019-04-23T09:28:54.683Z,97.20
2019-04-23T09:32:00.586Z,96.70
2019-04-23T09:34:10.119Z,97.10
2019-04-23T09:37:00.182Z,97.80
2019-04-23T09:39:34.889Z,97.10
2019-04-23T09:42:32.194Z,97.20
2019-04-23T09:45:05.272Z,96.80
2019-04-23T09:50:20.173Z,95.60
2019-04-23T09:52:59.094Z,95.60
2019-04-23T09:57:51.940Z,96.30
2019-04-23T10:00:25.252Z,95.80
2019-04-23T10:02:36.357Z,95.10
2019-04-23T10:05:11.295Z,94.30
2019-04-23T10:07:40.685Z,94.40
2019-04-23T10:09:59.558Z,93.80
2019-04-23T10:12:28.135Z,93.40
2019-04-23T10:15:05.439Z,93.20
2019-04-23T10:17:26.249Z,92.50
2019-04-23T10:19:55.155Z,92.40
2019-04-23T10:22:23.275Z,92.10
2019-04-23T10:24:51.033Z,92.80
2019-04-23T10:27:18.910Z,92.80
2019-04-23T10:29:49.845Z,92.20
2019-04-23T10:32:19.750Z,92.40
2019-04-23T10:34:57.812Z,94.70
2019-04-23T10:37:30.015Z,97.70
2019-04-23T10:39:52.543Z,98.90
2019-04-23T10:42:28.581Z,99.00
2019-04-23T10:45:35.193Z,99.50
2019-04-23T10:49:11.080Z,99.90
2019-04-23T10:51:40.962Z,99.90
2019-04-23T10:56:44.980Z,99.90
2019-04-23T10:59:35.686Z,99.90
2019-04-23T11:02:15.742Z,99.90
2019-04-23T11:07:12.987Z,99.90
2019-04-23T11:09:53.080Z,99.90
2019-04-23T11:14:51.257Z,99.90
2019-04-23T11:17:26.061Z,99.90
2019-04-23T11:20:00.824Z,99.90
2019-04-23T11:22:42.557Z,98.80
2019-04-23T11:27:26.005Z,93.60
2019-04-23T11:32:42.704Z,91.20
2019-04-23T11:40:15.547Z,85.70
2019-04-23T11:48:32.933Z,87.90
2019-04-23T11:51:30.393Z,83.90
2019-04-23T11:53:42.471Z,85.60
2019-04-23T11:56:22.690Z,81.50
2019-04-23T11:58:45.938Z,82.90
2019-04-23T12:01:52.265Z,84.50
2019-04-23T12:07:33.923Z,82.10
2019-04-23T12:10:30.641Z,81.90
2019-04-23T12:13:02.874Z,79.70
2019-04-23T12:15:51.793Z,80.90
2019-04-23T12:18:35.055Z,83.20
2019-04-23T12:21:20.497Z,81.00
2019-04-23T12:24:07.233Z,83.20
2019-04-23T12:26:43.526Z,82.30
2019-04-23T12:29:33.434Z,82.00
2019-04-23T12:38:01.302Z,83.70
2019-04-23T12:43:04.949Z,83.20
2019-04-23T12:45:47.015Z,82.80
2019-04-23T12:56:21.213Z,78.60
2019-04-23T12:58:47.722Z,79.90
2019-04-23T13:01:35.780Z,81.10
2019-04-23T13:04:00.035Z,80.90
2019-04-23T13:06:46.190Z,79.90
2019-04-23T13:09:42.932Z,80.90
2019-04-23T13:12:11.727Z,80.10
2019-04-23T13:14:49.630Z,81.20
2019-04-23T13:17:40.515Z,80.30
2019-04-23T13:22:47.634Z,78.70
2019-04-23T13:28:21.228Z,79.60
2019-04-23T13:30:59.536Z,78.80
2019-04-23T13:33:36.158Z,79.20
2019-04-23T13:36:08.658Z,77.60
2019-04-23T13:38:38.249Z,76.80
2019-04-23T13:41:08.411Z,76.60
2019-04-23T13:43:40.515Z,76.10
2019-04-23T13:48:48.997Z,78.10
2019-04-23T13:54:13.866Z,79.30
2019-04-23T13:56:39.319Z,79.20
2019-04-23T13:58:55.017Z,76.40
2019-04-23T14:01:35.901Z,77.20
2019-04-23T14:04:33.383Z,77.70
2019-04-23T14:06:49.517Z,77.70
2019-04-23T14:11:40.037Z,78.80
2019-04-23T14:14:25.233Z,78.70
2019-04-23T14:17:00.136Z,78.60
2019-04-23T14:19:12.201Z,77.80
2019-04-23T14:21:44.535Z,77.10
2019-04-23T14:26:48.624Z,76.90
2019-04-23T14:29:26.450Z,77.10
2019-04-23T14:31:54.917Z,77.10
2019-04-23T14:34:17.742Z,77.00
2019-04-23T14:36:52.303Z,76.90
2019-04-23T14:39:28.586Z,77.30
2019-04-23T14:41:54.234Z,77.20
2019-04-23T14:44:23.623Z,76.60
2019-04-23T14:46:58.446Z,77.20
2019-04-23T14:49:30.503Z,76.90
2019-04-23T14:52:00.291Z,76.70
2019-04-23T14:54:35.993Z,76.40
2019-04-23T14:57:03.890Z,75.20
2019-04-23T14:59:14.988Z,75.70
2019-04-23T15:01:55.010Z,75.00
2019-04-23T15:04:28.763Z,75.90
2019-04-23T15:07:02.558Z,74.80
2019-04-23T15:09:27.553Z,74.30
2019-04-23T15:12:01.764Z,76.20
2019-04-23T15:14:30.084Z,76.80
2019-04-23T15:16:57.157Z,76.20
2019-04-23T15:22:04.645Z,77.60
2019-04-23T15:24:26.016Z,87.30
2019-04-23T15:29:06.947Z,92.70
2019-04-23T15:31:55.600Z,95.60
2019-04-23T15:34:17.678Z,99.40
2019-04-23T15:37:09.368Z,99.90
2019-04-23T15:46:57.046Z,99.90
2019-04-23T15:54:25.257Z,99.90
2019-04-23T15:56:55.289Z,99.90
2019-04-23T15:59:29.673Z,99.90
2019-04-23T16:01:41.073Z,99.90
2019-04-23T16:03:53.784Z,99.90
2019-04-23T16:06:26.342Z,99.90
2019-04-23T16:09:14.481Z,99.90
2019-04-23T16:14:26.164Z,99.90
2019-04-23T16:19:43.667Z,99.90
2019-04-23T16:24:35.857Z,99.90
2019-04-23T16:27:11.125Z,99.10
2019-04-23T16:32:18.317Z,98.20
2019-04-23T16:34:44.917Z,98.60
2019-04-23T16:37:15.628Z,98.40
2019-04-23T16:39:56.022Z,98.60
2019-04-23T16:44:58.781Z,98.00
2019-04-23T16:47:18.634Z,98.30
2019-04-23T16:49:55.608Z,98.50
2019-04-23T16:54:54.976Z,98.40
2019-04-23T16:57:33.320Z,98.40
2019-04-23T17:00:02.543Z,97.90
2019-04-23T17:04:49.736Z,97.80
2019-04-23T17:07:07.019Z,97.90
2019-04-23T17:09:51.197Z,97.90
2019-04-23T17:12:13.760Z,97.70
2019-04-23T17:14:42.035Z,97.70
2019-04-23T17:17:09.888Z,98.30
2019-04-23T17:19:48.504Z,96.60
2019-04-23T17:22:09.574Z,96.10
2019-04-23T17:24:39.846Z,95.60
2019-04-23T17:27:16.598Z,96.10
2019-04-23T17:29:41.354Z,96.40
2019-04-23T17:32:16.590Z,96.60
2019-04-23T17:35:08.201Z,95.40
2019-04-23T17:40:13.574Z,95.70
2019-04-23T17:43:14.719Z,95.70
2019-04-23T17:45:32.509Z,95.90
2019-04-23T17:48:22.000Z,95.70
2019-04-23T17:50:56.589Z,96.30
2019-04-23T17:53:25.468Z,96.30
2019-04-23T18:01:11.013Z,96.40
2019-04-23T18:03:30.375Z,96.90
2019-04-23T18:06:14.293Z,96.90
2019-04-23T18:08:29.089Z,96.80
2019-04-23T18:11:12.831Z,97.50
2019-04-23T18:13:28.199Z,97.10
2019-04-23T18:16:08.458Z,97.00
2019-04-23T18:18:39.188Z,97.40
2019-04-23T18:21:29.505Z,97.10
2019-04-23T18:27:04.916Z,97.40
2019-04-23T18:29:45.992Z,97.50
2019-04-23T18:32:30.205Z,97.20
2019-04-23T18:35:10.420Z,97.20
2019-04-23T18:37:24.340Z,97.50
2019-04-23T18:39:48.439Z,97.10
2019-04-23T18:42:25.736Z,97.10
2019-04-23T18:47:24.869Z,97.30
2019-04-23T18:49:47.447Z,97.40
2019-04-23T18:52:26.044Z,97.30
2019-04-23T18:54:48.870Z,97.30
2019-04-23T18:57:13.020Z,97.40
2019-04-23T19:02:54.606Z,97.70
2019-04-23T19:08:32.094Z,97.70
2019-04-23T19:10:50.887Z,98.00
2019-04-23T19:13:24.906Z,98.20
2019-04-23T19:16:02.294Z,98.20
2019-04-23T19:18:44.378Z,98.20
2019-04-23T19:21:13.557Z,98.30
2019-04-23T19:23:46.179Z,98.40
2019-04-23T19:26:02.179Z,98.40
2019-04-23T19:34:17.537Z,98.30
2019-04-23T19:36:40.288Z,97.90
2019-04-23T19:39:11.051Z,96.10
2019-04-23T19:41:49.546Z,96.00
2019-04-23T19:44:01.224Z,95.20
2019-04-23T19:46:48.961Z,94.70
2019-04-23T19:51:42.211Z,93.60
2019-04-23T19:56:47.166Z,93.10
2019-04-23T19:59:15.529Z,93.10
2019-04-23T20:01:39.116Z,93.20
2019-04-23T20:04:09.392Z,93.10
2019-04-23T20:06:58.528Z,93.00
2019-04-23T20:11:52.745Z,93.30
2019-04-23T20:14:13.685Z,93.30
2019-04-23T20:19:28.081Z,93.50
2019-04-23T20:21:53.003Z,93.60
2019-04-23T20:26:51.624Z,93.60
2019-04-23T20:30:14.898Z,93.80
2019-04-23T20:37:12.575Z,93.70
2019-04-23T20:39:55.110Z,93.70
2019-04-23T20:44:53.483Z,93.60
2019-04-23T20:47:15.833Z,93.70
2019-04-23T20:52:10.536Z,93.50
2019-04-23T20:54:56.592Z,93.50
2019-04-23T21:03:11.695Z,93.40
2019-04-23T21:05:21.319Z,93.30
2019-04-23T21:17:58.299Z,93.70
2019-04-23T21:20:21.210Z,93.90
2019-04-23T21:22:38.190Z,94.00
2019-04-23T21:28:00.629Z,94.30
2019-04-23T21:30:41.585Z,94.50
2019-04-23T21:33:04.941Z,94.50
2019-04-23T21:36:03.135Z,94.60
2019-04-23T21:38:27.713Z,94.70
2019-04-23T21:41:41.566Z,94.70
2019-04-23T21:44:05.629Z,94.70
2019-04-23T21:49:01.913Z,94.90
2019-04-23T21:51:28.595Z,94.90
2019-04-23T21:53:50.723Z,95.00
2019-04-23T21:56:15.214Z,95.00
2019-04-23T21:58:54.842Z,95.20
2019-04-23T22:04:04.575Z,95.00
2019-04-23T22:06:25.519Z,95.00
2019-04-23T22:08:53.237Z,95.00
2019-04-23T22:11:49.583Z,95.10
2019-04-23T22:13:58.214Z,95.20
2019-04-23T22:16:27.855Z,95.30
2019-04-23T22:19:01.840Z,95.30
2019-04-23T22:21:26.272Z,95.50
2019-04-23T22:23:58.152Z,95.50
2019-04-23T22:29:01.435Z,95.80
2019-04-23T22:34:02.576Z,96.00
2019-04-23T22:38:43.579Z,96.10
2019-04-23T22:41:10.563Z,96.00
2019-04-23T22:43:57.710Z,96.00
2019-04-23T22:46:20.809Z,95.90
2019-04-23T22:54:03.811Z,95.90
2019-04-23T22:56:25.615Z,96.00
2019-04-23T22:59:11.993Z,96.10
2019-04-23T23:01:38.614Z,96.10
2019-04-23T23:04:15.528Z,96.20
2019-04-23T23:06:48.925Z,96.40
2019-04-23T23:09:20.968Z,96.50
2019-04-23T23:11:42.990Z,96.60
2019-04-23T23:14:14.081Z,96.60
2019-04-23T23:19:14.469Z,96.50
2019-04-23T23:21:54.547Z,96.40
2019-04-23T23:24:09.639Z,96.40
2019-04-23T23:26:40.763Z,96.40
2019-04-23T23:29:06.194Z,96.40
2019-04-23T23:31:36.701Z,96.40
2019-04-23T23:34:10.113Z,96.40
2019-04-23T23:39:19.684Z,96.30
2019-04-23T23:44:27.668Z,96.50
2019-04-23T23:49:05.325Z,96.60
2019-04-23T23:51:39.877Z,96.60
2019-04-23T23:54:08.516Z,96.60
2019-04-23T23:56:53.659Z,96.70
2019-04-23T23:59:18.020Z,96.80
